sensor_id;sensor_type;location;lat;lon;timestamp;temperature;humidity
59923;DHT22;45778;51.142;3.732;2022-12-07T00:03:36;4.80;99.90
59923;DHT22;45778;51.142;3.732;2022-12-07T00:06:03;4.80;99.90
59923;DHT22;45778;51.142;3.732;2022-12-07T00:08:30;4.80;99.90
59923;DHT22;45778;51.142;3.732;2022-12-07T00:11:01;4.80;99.90
59923;DHT22;45778;51.142;3.732;2022-12-07T00:13:27;4.90;99.90
59923;DHT22;45778;51.142;3.732;2022-12-07T00:15:53;5.00;99.90
59923;DHT22;45778;51.142;3.732;2022-12-07T00:18:18;5.10;99.90
59923;DHT22;45778;51.142;3.732;2022-12-07T00:20:44;5.20;99.90
59923;DHT22;45778;51.142;3.732;2022-12-07T00:23:10;5.30;99.90
59923;DHT22;45778;51.142;3.732;2022-12-07T00:25:35;5.30;99.90
59923;DHT22;45778;51.142;3.732;2022-12-07T00:28:01;5.30;99.90
59923;DHT22;45778;51.142;3.732;2022-12-07T00:30:27;5.30;99.90
59923;DHT22;45778;51.142;3.732;2022-12-07T00:32:52;5.30;99.90
59923;DHT22;45778;51.142;3.732;2022-12-07T00:35:18;5.20;99.90
59923;DHT22;45778;51.142;3.732;2022-12-07T00:37:44;5.20;99.90
59923;DHT22;45778;51.142;3.732;2022-12-07T00:40:10;5.20;99.90
59923;DHT22;45778;51.142;3.732;2022-12-07T00:42:35;5.10;99.90
59923;DHT22;45778;51.142;3.732;2022-12-07T00:45:01;5.00;99.90
59923;DHT22;45778;51.142;3.732;2022-12-07T00:47:27;4.90;99.90
59923;DHT22;45778;51.142;3.732;2022-12-07T00:49:52;4.80;99.90
59923;DHT22;45778;51.142;3.732;2022-12-07T00:52:18;4.80;99.90
59923;DHT22;45778;51.142;3.732;2022-12-07T00:54:44;4.70;99.90
59923;DHT22;45778;51.142;3.732;2022-12-07T00:57:09;4.60;99.90
59923;DHT22;45778;51.142;3.732;2022-12-07T00:59:35;4.50;99.90
59923;DHT22;45778;51.142;3.732;2022-12-07T01:02:01;4.50;99.90
59923;DHT22;45778;51.142;3.732;2022-12-07T01:04:26;4.40;99.90
59923;DHT22;45778;51.142;3.732;2022-12-07T01:06:52;4.40;99.90
59923;DHT22;45778;51.142;3.732;2022-12-07T01:09:18;4.40;99.90
59923;DHT22;45778;51.142;3.732;2022-12-07T01:11:43;4.50;99.90
59923;DHT22;45778;51.142;3.732;2022-12-07T01:14:09;4.40;99.90
59923;DHT22;45778;51.142;3.732;2022-12-07T01:16:35;4.20;99.90
59923;DHT22;45778;51.142;3.732;2022-12-07T01:19:01;4.20;99.90
59923;DHT22;45778;51.142;3.732;2022-12-07T01:21:32;4.20;99.90
59923;DHT22;45778;51.142;3.732;2022-12-07T01:24:04;4.30;99.90
59923;DHT22;45778;51.142;3.732;2022-12-07T01:26:30;4.20;99.90
59923;DHT22;45778;51.142;3.732;2022-12-07T01:28:56;4.00;99.90
59923;DHT22;45778;51.142;3.732;2022-12-07T01:31:25;3.90;99.90
59923;DHT22;45778;51.142;3.732;2022-12-07T01:33:53;4.00;99.90
59923;DHT22;45778;51.142;3.732;2022-12-07T01:38:55;3.90;99.90
59923;DHT22;45778;51.142;3.732;2022-12-07T01:41:23;4.00;99.90
59923;DHT22;45778;51.142;3.732;2022-12-07T01:46:36;4.00;99.90
59923;DHT22;45778;51.142;3.732;2022-12-07T01:49:03;4.00;99.90
59923;DHT22;45778;51.142;3.732;2022-12-07T01:51:31;4.00;99.90
59923;DHT22;45778;51.142;3.732;2022-12-07T01:53:57;4.00;99.90
59923;DHT22;45778;51.142;3.732;2022-12-07T01:56:26;4.10;99.90
59923;DHT22;45778;51.142;3.732;2022-12-07T01:58:53;4.20;99.90
59923;DHT22;45778;51.142;3.732;2022-12-07T02:01:20;4.20;99.90
59923;DHT22;45778;51.142;3.732;2022-12-07T02:03:46;4.00;99.90
59923;DHT22;45778;51.142;3.732;2022-12-07T02:06:15;4.00;99.90
59923;DHT22;45778;51.142;3.732;2022-12-07T02:08:42;4.10;99.90
59923;DHT22;45778;51.142;3.732;2022-12-07T02:11:08;4.10;99.90
59923;DHT22;45778;51.142;3.732;2022-12-07T02:13:37;4.20;99.90
59923;DHT22;45778;51.142;3.732;2022-12-07T02:16:26;4.10;99.90
59923;DHT22;45778;51.142;3.732;2022-12-07T02:22:18;4.20;99.90
59923;DHT22;45778;51.142;3.732;2022-12-07T02:25:04;4.20;99.90
59923;DHT22;45778;51.142;3.732;2022-12-07T02:30:28;4.30;99.90
59923;DHT22;45778;51.142;3.732;2022-12-07T02:33:03;4.30;99.90
59923;DHT22;45778;51.142;3.732;2022-12-07T02:35:40;4.40;99.90
59923;DHT22;45778;51.142;3.732;2022-12-07T02:41:05;4.20;99.90
59923;DHT22;45778;51.142;3.732;2022-12-07T02:43:37;4.10;99.90
59923;DHT22;45778;51.142;3.732;2022-12-07T02:46:10;4.10;99.90
59923;DHT22;45778;51.142;3.732;2022-12-07T02:48:38;4.20;99.90
59923;DHT22;45778;51.142;3.732;2022-12-07T02:51:05;4.00;99.90
59923;DHT22;45778;51.142;3.732;2022-12-07T02:53:36;4.10;99.90
59923;DHT22;45778;51.142;3.732;2022-12-07T02:56:31;4.00;99.90
59923;DHT22;45778;51.142;3.732;2022-12-07T03:01:38;4.00;99.90
59923;DHT22;45778;51.142;3.732;2022-12-07T03:06:55;4.00;99.90
59923;DHT22;45778;51.142;3.732;2022-12-07T03:18:02;4.10;99.90
59923;DHT22;45778;51.142;3.732;2022-12-07T03:20:29;4.10;99.90
59923;DHT22;45778;51.142;3.732;2022-12-07T03:22:57;4.10;99.90
59923;DHT22;45778;51.142;3.732;2022-12-07T03:25:26;4.10;99.90
59923;DHT22;45778;51.142;3.732;2022-12-07T03:27:58;4.30;99.90
59923;DHT22;45778;51.142;3.732;2022-12-07T03:33:07;3.90;99.90
59923;DHT22;45778;51.142;3.732;2022-12-07T03:35:50;3.90;99.90
59923;DHT22;45778;51.142;3.732;2022-12-07T03:38:22;3.80;99.90
59923;DHT22;45778;51.142;3.732;2022-12-07T03:41:04;3.70;99.90
59923;DHT22;45778;51.142;3.732;2022-12-07T03:43:31;3.60;99.90
59923;DHT22;45778;51.142;3.732;2022-12-07T03:51:46;3.60;99.90
59923;DHT22;45778;51.142;3.732;2022-12-07T03:54:21;3.70;99.90
59923;DHT22;45778;51.142;3.732;2022-12-07T03:56:49;3.70;99.90
59923;DHT22;45778;51.142;3.732;2022-12-07T03:59:16;3.50;99.90
59923;DHT22;45778;51.142;3.732;2022-12-07T04:01:52;3.40;99.90
59923;DHT22;45778;51.142;3.732;2022-12-07T04:04:18;3.40;99.90
59923;DHT22;45778;51.142;3.732;2022-12-07T04:06:44;3.60;99.90
59923;DHT22;45778;51.142;3.732;2022-12-07T04:09:10;3.70;99.90
59923;DHT22;45778;51.142;3.732;2022-12-07T04:11:35;3.70;99.90
59923;DHT22;45778;51.142;3.732;2022-12-07T04:14:01;3.70;99.90
59923;DHT22;45778;51.142;3.732;2022-12-07T04:16:57;3.70;99.90
59923;DHT22;45778;51.142;3.732;2022-12-07T04:19:28;3.70;99.90
59923;DHT22;45778;51.142;3.732;2022-12-07T04:21:54;3.50;99.90
59923;DHT22;45778;51.142;3.732;2022-12-07T04:24:20;3.50;99.90
59923;DHT22;45778;51.142;3.732;2022-12-07T04:26:46;3.50;99.90
59923;DHT22;45778;51.142;3.732;2022-12-07T04:29:12;3.60;99.90
59923;DHT22;45778;51.142;3.732;2022-12-07T04:31:38;3.70;99.90
59923;DHT22;45778;51.142;3.732;2022-12-07T04:34:04;3.70;99.90
59923;DHT22;45778;51.142;3.732;2022-12-07T04:36:31;3.90;99.90
59923;DHT22;45778;51.142;3.732;2022-12-07T04:38:57;4.00;99.90
59923;DHT22;45778;51.142;3.732;2022-12-07T04:41:24;4.20;99.90
59923;DHT22;45778;51.142;3.732;2022-12-07T04:44:04;4.50;99.90
59923;DHT22;45778;51.142;3.732;2022-12-07T04:46:33;4.30;99.90
59923;DHT22;45778;51.142;3.732;2022-12-07T04:48:58;4.50;99.90
59923;DHT22;45778;51.142;3.732;2022-12-07T04:51:27;4.70;99.90
59923;DHT22;45778;51.142;3.732;2022-12-07T04:53:54;4.70;99.90
59923;DHT22;45778;51.142;3.732;2022-12-07T04:56:20;4.80;99.90
59923;DHT22;45778;51.142;3.732;2022-12-07T04:58:47;4.70;99.90
59923;DHT22;45778;51.142;3.732;2022-12-07T05:01:15;4.70;99.90
59923;DHT22;45778;51.142;3.732;2022-12-07T05:03:41;4.80;99.90
59923;DHT22;45778;51.142;3.732;2022-12-07T05:06:08;4.70;99.90
59923;DHT22;45778;51.142;3.732;2022-12-07T05:08:35;4.70;99.90
59923;DHT22;45778;51.142;3.732;2022-12-07T05:11:01;4.70;99.90
59923;DHT22;45778;51.142;3.732;2022-12-07T05:13:27;4.70;99.90
59923;DHT22;45778;51.142;3.732;2022-12-07T05:15:53;4.70;99.90
59923;DHT22;45778;51.142;3.732;2022-12-07T05:18:19;4.50;99.90
59923;DHT22;45778;51.142;3.732;2022-12-07T05:20:45;4.50;99.90
59923;DHT22;45778;51.142;3.732;2022-12-07T05:23:11;4.30;99.90
59923;DHT22;45778;51.142;3.732;2022-12-07T05:25:37;4.20;99.90
59923;DHT22;45778;51.142;3.732;2022-12-07T05:28:04;4.40;99.90
59923;DHT22;45778;51.142;3.732;2022-12-07T05:30:30;4.20;99.90
59923;DHT22;45778;51.142;3.732;2022-12-07T05:32:56;3.90;99.90
59923;DHT22;45778;51.142;3.732;2022-12-07T05:35:22;4.10;99.90
59923;DHT22;45778;51.142;3.732;2022-12-07T05:37:48;4.00;99.90
59923;DHT22;45778;51.142;3.732;2022-12-07T05:40:14;4.00;99.90
59923;DHT22;45778;51.142;3.732;2022-12-07T05:42:40;4.00;99.90
59923;DHT22;45778;51.142;3.732;2022-12-07T05:45:07;4.10;99.90
59923;DHT22;45778;51.142;3.732;2022-12-07T05:47:33;4.10;99.90
59923;DHT22;45778;51.142;3.732;2022-12-07T05:49:59;4.20;99.90
59923;DHT22;45778;51.142;3.732;2022-12-07T05:52:25;4.10;99.90
59923;DHT22;45778;51.142;3.732;2022-12-07T05:54:51;4.20;99.90
59923;DHT22;45778;51.142;3.732;2022-12-07T05:57:17;4.20;99.90
59923;DHT22;45778;51.142;3.732;2022-12-07T05:59:43;4.30;99.90
59923;DHT22;45778;51.142;3.732;2022-12-07T06:02:13;4.40;99.90
59923;DHT22;45778;51.142;3.732;2022-12-07T06:04:42;4.50;99.90
59923;DHT22;45778;51.142;3.732;2022-12-07T06:07:09;4.40;99.90
59923;DHT22;45778;51.142;3.732;2022-12-07T06:09:36;4.40;99.90
59923;DHT22;45778;51.142;3.732;2022-12-07T06:12:02;4.40;99.90
59923;DHT22;45778;51.142;3.732;2022-12-07T06:14:46;4.30;99.90
59923;DHT22;45778;51.142;3.732;2022-12-07T06:17:12;4.30;99.90
59923;DHT22;45778;51.142;3.732;2022-12-07T06:19:39;4.20;99.90
59923;DHT22;45778;51.142;3.732;2022-12-07T06:22:05;4.30;99.90
59923;DHT22;45778;51.142;3.732;2022-12-07T06:24:32;4.20;99.90
59923;DHT22;45778;51.142;3.732;2022-12-07T06:26:58;4.00;99.90
59923;DHT22;45778;51.142;3.732;2022-12-07T06:29:24;4.00;99.90
59923;DHT22;45778;51.142;3.732;2022-12-07T06:31:49;3.90;99.90
59923;DHT22;45778;51.142;3.732;2022-12-07T06:34:17;3.90;99.90
59923;DHT22;45778;51.142;3.732;2022-12-07T06:36:43;3.90;99.90
59923;DHT22;45778;51.142;3.732;2022-12-07T06:39:09;4.00;99.90
59923;DHT22;45778;51.142;3.732;2022-12-07T06:41:39;3.90;99.90
59923;DHT22;45778;51.142;3.732;2022-12-07T06:44:05;3.50;99.90
59923;DHT22;45778;51.142;3.732;2022-12-07T06:46:31;3.40;99.90
59923;DHT22;45778;51.142;3.732;2022-12-07T06:48:57;3.40;99.90
59923;DHT22;45778;51.142;3.732;2022-12-07T06:51:23;3.80;99.90
59923;DHT22;45778;51.142;3.732;2022-12-07T06:53:49;3.60;99.90
59923;DHT22;45778;51.142;3.732;2022-12-07T06:56:15;3.80;99.90
59923;DHT22;45778;51.142;3.732;2022-12-07T06:58:41;3.90;99.90
59923;DHT22;45778;51.142;3.732;2022-12-07T07:01:11;4.00;99.90
59923;DHT22;45778;51.142;3.732;2022-12-07T07:03:37;4.10;99.90
59923;DHT22;45778;51.142;3.732;2022-12-07T07:06:04;4.20;99.90
59923;DHT22;45778;51.142;3.732;2022-12-07T07:08:29;4.30;99.90
59923;DHT22;45778;51.142;3.732;2022-12-07T07:10:56;4.30;99.90
59923;DHT22;45778;51.142;3.732;2022-12-07T07:13:21;4.40;99.90
59923;DHT22;45778;51.142;3.732;2022-12-07T07:15:47;4.50;99.90
59923;DHT22;45778;51.142;3.732;2022-12-07T07:18:13;4.40;99.90
59923;DHT22;45778;51.142;3.732;2022-12-07T07:20:38;4.40;99.90
59923;DHT22;45778;51.142;3.732;2022-12-07T07:23:05;4.50;99.90
59923;DHT22;45778;51.142;3.732;2022-12-07T07:25:31;4.70;99.90
59923;DHT22;45778;51.142;3.732;2022-12-07T07:27:57;4.50;99.90
59923;DHT22;45778;51.142;3.732;2022-12-07T07:30:23;4.50;99.90
59923;DHT22;45778;51.142;3.732;2022-12-07T07:32:49;4.50;99.90
59923;DHT22;45778;51.142;3.732;2022-12-07T07:35:15;4.50;99.90
59923;DHT22;45778;51.142;3.732;2022-12-07T07:37:41;4.50;99.90
59923;DHT22;45778;51.142;3.732;2022-12-07T07:40:08;4.50;99.90
59923;DHT22;45778;51.142;3.732;2022-12-07T07:42:34;4.50;99.90
59923;DHT22;45778;51.142;3.732;2022-12-07T07:45:00;4.30;99.90
59923;DHT22;45778;51.142;3.732;2022-12-07T07:47:26;4.30;99.90
59923;DHT22;45778;51.142;3.732;2022-12-07T07:49:51;4.20;99.90
59923;DHT22;45778;51.142;3.732;2022-12-07T07:52:17;4.20;99.90
59923;DHT22;45778;51.142;3.732;2022-12-07T07:54:43;4.10;99.90
59923;DHT22;45778;51.142;3.732;2022-12-07T07:57:08;4.20;99.90
59923;DHT22;45778;51.142;3.732;2022-12-07T07:59:34;4.00;99.90
59923;DHT22;45778;51.142;3.732;2022-12-07T08:02:00;3.90;99.90
59923;DHT22;45778;51.142;3.732;2022-12-07T08:04:25;4.00;99.90
59923;DHT22;45778;51.142;3.732;2022-12-07T08:06:51;4.00;99.90
59923;DHT22;45778;51.142;3.732;2022-12-07T08:09:17;4.00;99.90
59923;DHT22;45778;51.142;3.732;2022-12-07T08:11:42;4.00;99.90
59923;DHT22;45778;51.142;3.732;2022-12-07T08:14:10;4.00;99.90
59923;DHT22;45778;51.142;3.732;2022-12-07T08:16:36;4.00;99.90
59923;DHT22;45778;51.142;3.732;2022-12-07T08:19:04;4.00;99.90
59923;DHT22;45778;51.142;3.732;2022-12-07T08:21:30;4.00;99.90
59923;DHT22;45778;51.142;3.732;2022-12-07T08:23:57;4.30;99.90
59923;DHT22;45778;51.142;3.732;2022-12-07T08:26:23;3.90;99.90
59923;DHT22;45778;51.142;3.732;2022-12-07T08:28:48;3.80;99.90
59923;DHT22;45778;51.142;3.732;2022-12-07T08:31:17;3.70;99.90
59923;DHT22;45778;51.142;3.732;2022-12-07T08:33:45;4.10;99.90
59923;DHT22;45778;51.142;3.732;2022-12-07T08:36:12;3.80;99.90
59923;DHT22;45778;51.142;3.732;2022-12-07T08:38:39;3.80;99.90
59923;DHT22;45778;51.142;3.732;2022-12-07T08:41:06;3.80;99.90
59923;DHT22;45778;51.142;3.732;2022-12-07T08:43:32;3.90;99.90
59923;DHT22;45778;51.142;3.732;2022-12-07T08:48:35;4.10;99.90
59923;DHT22;45778;51.142;3.732;2022-12-07T08:51:02;4.30;99.90
59923;DHT22;45778;51.142;3.732;2022-12-07T08:53:28;4.20;99.90
59923;DHT22;45778;51.142;3.732;2022-12-07T08:55:56;4.30;99.90
59923;DHT22;45778;51.142;3.732;2022-12-07T08:58:22;4.50;99.90
59923;DHT22;45778;51.142;3.732;2022-12-07T09:00:48;4.80;99.90
59923;DHT22;45778;51.142;3.732;2022-12-07T09:03:14;5.10;99.90
59923;DHT22;45778;51.142;3.732;2022-12-07T09:05:39;5.40;99.90
59923;DHT22;45778;51.142;3.732;2022-12-07T09:08:05;5.60;99.90
59923;DHT22;45778;51.142;3.732;2022-12-07T09:10:31;5.80;99.90
59923;DHT22;45778;51.142;3.732;2022-12-07T09:12:57;6.00;99.90
59923;DHT22;45778;51.142;3.732;2022-12-07T09:15:27;5.90;99.90
59923;DHT22;45778;51.142;3.732;2022-12-07T09:17:53;5.90;99.90
59923;DHT22;45778;51.142;3.732;2022-12-07T09:20:19;5.80;99.90
59923;DHT22;45778;51.142;3.732;2022-12-07T09:22:44;5.60;99.90
59923;DHT22;45778;51.142;3.732;2022-12-07T09:25:10;5.50;99.90
59923;DHT22;45778;51.142;3.732;2022-12-07T09:27:36;5.40;99.90
59923;DHT22;45778;51.142;3.732;2022-12-07T09:30:02;5.40;99.90
59923;DHT22;45778;51.142;3.732;2022-12-07T09:32:28;5.50;99.90
59923;DHT22;45778;51.142;3.732;2022-12-07T09:34:54;5.50;99.90
59923;DHT22;45778;51.142;3.732;2022-12-07T09:37:20;5.40;99.90
59923;DHT22;45778;51.142;3.732;2022-12-07T09:39:46;5.30;99.90
59923;DHT22;45778;51.142;3.732;2022-12-07T09:42:42;5.30;99.90
59923;DHT22;45778;51.142;3.732;2022-12-07T09:45:34;5.30;99.90
59923;DHT22;45778;51.142;3.732;2022-12-07T09:48:02;5.50;99.90
59923;DHT22;45778;51.142;3.732;2022-12-07T09:50:29;5.60;99.90
59923;DHT22;45778;51.142;3.732;2022-12-07T09:53:13;5.60;99.90
59923;DHT22;45778;51.142;3.732;2022-12-07T09:55:41;5.60;99.90
59923;DHT22;45778;51.142;3.732;2022-12-07T09:58:20;5.60;99.90
59923;DHT22;45778;51.142;3.732;2022-12-07T10:00:47;5.60;99.90
59923;DHT22;45778;51.142;3.732;2022-12-07T10:03:13;5.50;99.90
59923;DHT22;45778;51.142;3.732;2022-12-07T10:05:43;5.40;99.90
59923;DHT22;45778;51.142;3.732;2022-12-07T10:08:12;5.40;99.90
59923;DHT22;45778;51.142;3.732;2022-12-07T10:10:39;5.40;99.90
59923;DHT22;45778;51.142;3.732;2022-12-07T10:15:53;5.50;99.90
59923;DHT22;45778;51.142;3.732;2022-12-07T10:23:39;5.80;99.90
59923;DHT22;45778;51.142;3.732;2022-12-07T10:26:31;5.80;99.90
59923;DHT22;45778;51.142;3.732;2022-12-07T10:29:30;6.00;99.90
59923;DHT22;45778;51.142;3.732;2022-12-07T10:32:00;6.00;99.90
59923;DHT22;45778;51.142;3.732;2022-12-07T10:37:14;6.40;99.90
59923;DHT22;45778;51.142;3.732;2022-12-07T10:39:48;6.60;99.90
59923;DHT22;45778;51.142;3.732;2022-12-07T10:42:28;6.60;99.90
59923;DHT22;45778;51.142;3.732;2022-12-07T10:45:26;6.70;99.90
59923;DHT22;45778;51.142;3.732;2022-12-07T11:01:33;6.10;99.90
59923;DHT22;45778;51.142;3.732;2022-12-07T11:07:14;5.80;99.90
59923;DHT22;45778;51.142;3.732;2022-12-07T11:10:04;5.80;99.90
59923;DHT22;45778;51.142;3.732;2022-12-07T11:18:01;6.30;99.90
59923;DHT22;45778;51.142;3.732;2022-12-07T11:23:11;6.30;99.90
59923;DHT22;45778;51.142;3.732;2022-12-07T11:25:53;6.30;99.90
59923;DHT22;45778;51.142;3.732;2022-12-07T11:29:18;6.30;99.90
59923;DHT22;45778;51.142;3.732;2022-12-07T11:36:54;6.50;99.90
59923;DHT22;45778;51.142;3.732;2022-12-07T11:39:33;6.50;99.90
59923;DHT22;45778;51.142;3.732;2022-12-07T11:42:19;6.50;99.90
59923;DHT22;45778;51.142;3.732;2022-12-07T11:45:02;6.50;99.90
59923;DHT22;45778;51.142;3.732;2022-12-07T11:50:26;6.50;99.90
59923;DHT22;45778;51.142;3.732;2022-12-07T11:56:02;6.60;99.90
59923;DHT22;45778;51.142;3.732;2022-12-07T12:03:42;6.60;99.90
59923;DHT22;45778;51.142;3.732;2022-12-07T12:06:09;6.50;99.90
59923;DHT22;45778;51.142;3.732;2022-12-07T12:17:19;6.50;99.90
59923;DHT22;45778;51.142;3.732;2022-12-07T12:22:43;6.70;99.90
59923;DHT22;45778;51.142;3.732;2022-12-07T12:25:40;6.90;99.90
59923;DHT22;45778;51.142;3.732;2022-12-07T12:28:27;7.10;99.90
59923;DHT22;45778;51.142;3.732;2022-12-07T12:33:51;7.70;99.90
59923;DHT22;45778;51.142;3.732;2022-12-07T12:47:38;8.00;99.90
59923;DHT22;45778;51.142;3.732;2022-12-07T12:50:32;7.80;99.90
59923;DHT22;45778;51.142;3.732;2022-12-07T12:53:05;7.60;99.90
59923;DHT22;45778;51.142;3.732;2022-12-07T12:55:54;7.60;99.90
59923;DHT22;45778;51.142;3.732;2022-12-07T12:58:33;7.50;99.90
59923;DHT22;45778;51.142;3.732;2022-12-07T13:03:56;7.60;99.90
59923;DHT22;45778;51.142;3.732;2022-12-07T13:08:52;7.60;99.90
59923;DHT22;45778;51.142;3.732;2022-12-07T13:11:25;7.70;99.90
59923;DHT22;45778;51.142;3.732;2022-12-07T13:16:58;7.80;99.90
59923;DHT22;45778;51.142;3.732;2022-12-07T13:19:54;7.90;99.90
59923;DHT22;45778;51.142;3.732;2022-12-07T13:25:12;7.90;99.90
59923;DHT22;45778;51.142;3.732;2022-12-07T13:27:50;8.20;99.90
59923;DHT22;45778;51.142;3.732;2022-12-07T13:30:22;8.30;99.90
59923;DHT22;45778;51.142;3.732;2022-12-07T13:32:55;8.50;99.90
59923;DHT22;45778;51.142;3.732;2022-12-07T13:35:32;8.60;99.90
59923;DHT22;45778;51.142;3.732;2022-12-07T13:38:01;8.50;99.90
59923;DHT22;45778;51.142;3.732;2022-12-07T13:40:27;8.60;99.90
59923;DHT22;45778;51.142;3.732;2022-12-07T13:43:04;8.60;99.90
59923;DHT22;45778;51.142;3.732;2022-12-07T13:45:38;8.50;99.90
59923;DHT22;45778;51.142;3.732;2022-12-07T13:48:20;8.40;99.90
59923;DHT22;45778;51.142;3.732;2022-12-07T13:50:56;8.00;99.90
59923;DHT22;45778;51.142;3.732;2022-12-07T13:53:23;7.80;99.90
59923;DHT22;45778;51.142;3.732;2022-12-07T13:55:49;7.80;99.90
59923;DHT22;45778;51.142;3.732;2022-12-07T13:58:15;7.80;99.90
59923;DHT22;45778;51.142;3.732;2022-12-07T14:00:41;7.70;99.90
59923;DHT22;45778;51.142;3.732;2022-12-07T14:05:44;7.50;99.90
59923;DHT22;45778;51.142;3.732;2022-12-07T14:10:54;7.60;99.90
59923;DHT22;45778;51.142;3.732;2022-12-07T14:16:28;7.30;99.90
59923;DHT22;45778;51.142;3.732;2022-12-07T14:18:59;7.20;99.90
59923;DHT22;45778;51.142;3.732;2022-12-07T14:21:27;7.30;99.90
59923;DHT22;45778;51.142;3.732;2022-12-07T14:26:28;7.20;99.90
59923;DHT22;45778;51.142;3.732;2022-12-07T14:31:54;7.10;99.90
59923;DHT22;45778;51.142;3.732;2022-12-07T14:34:21;7.10;99.90
59923;DHT22;45778;51.142;3.732;2022-12-07T14:36:47;7.10;99.90
59923;DHT22;45778;51.142;3.732;2022-12-07T14:39:12;6.90;99.90
59923;DHT22;45778;51.142;3.732;2022-12-07T14:41:38;6.90;99.90
59923;DHT22;45778;51.142;3.732;2022-12-07T14:44:17;6.70;99.90
59923;DHT22;45778;51.142;3.732;2022-12-07T14:46:43;6.50;99.90
59923;DHT22;45778;51.142;3.732;2022-12-07T14:49:09;6.60;99.90
59923;DHT22;45778;51.142;3.732;2022-12-07T14:51:37;6.60;99.90
59923;DHT22;45778;51.142;3.732;2022-12-07T14:54:05;6.60;99.90
59923;DHT22;45778;51.142;3.732;2022-12-07T14:56:31;6.40;99.90
59923;DHT22;45778;51.142;3.732;2022-12-07T14:58:57;6.30;99.90
59923;DHT22;45778;51.142;3.732;2022-12-07T15:01:23;6.20;99.90
59923;DHT22;45778;51.142;3.732;2022-12-07T15:03:48;6.30;99.90
59923;DHT22;45778;51.142;3.732;2022-12-07T15:06:17;6.40;99.90
59923;DHT22;45778;51.142;3.732;2022-12-07T15:08:43;6.50;99.90
59923;DHT22;45778;51.142;3.732;2022-12-07T15:11:17;6.60;99.90
59923;DHT22;45778;51.142;3.732;2022-12-07T15:13:43;6.70;99.90
59923;DHT22;45778;51.142;3.732;2022-12-07T15:16:27;6.80;99.90
59923;DHT22;45778;51.142;3.732;2022-12-07T15:18:53;6.80;99.90
59923;DHT22;45778;51.142;3.732;2022-12-07T15:21:19;6.70;99.90
59923;DHT22;45778;51.142;3.732;2022-12-07T15:23:46;6.40;99.90
59923;DHT22;45778;51.142;3.732;2022-12-07T15:26:13;6.20;99.90
59923;DHT22;45778;51.142;3.732;2022-12-07T15:28:39;6.10;99.90
59923;DHT22;45778;51.142;3.732;2022-12-07T15:31:11;6.00;99.90
59923;DHT22;45778;51.142;3.732;2022-12-07T15:33:37;5.90;99.90
59923;DHT22;45778;51.142;3.732;2022-12-07T15:36:03;5.80;99.90
59923;DHT22;45778;51.142;3.732;2022-12-07T15:38:29;5.70;99.90
59923;DHT22;45778;51.142;3.732;2022-12-07T15:40:56;5.60;99.90
59923;DHT22;45778;51.142;3.732;2022-12-07T15:43:22;5.60;99.90
59923;DHT22;45778;51.142;3.732;2022-12-07T15:46:06;5.60;99.90
59923;DHT22;45778;51.142;3.732;2022-12-07T15:48:32;5.60;99.90
59923;DHT22;45778;51.142;3.732;2022-12-07T15:51:08;5.80;99.90
59923;DHT22;45778;51.142;3.732;2022-12-07T15:53:34;5.90;99.90
59923;DHT22;45778;51.142;3.732;2022-12-07T15:56:00;6.00;99.90
59923;DHT22;45778;51.142;3.732;2022-12-07T15:58:26;6.20;99.90
59923;DHT22;45778;51.142;3.732;2022-12-07T16:00:52;6.40;99.90
59923;DHT22;45778;51.142;3.732;2022-12-07T16:03:18;6.60;99.90
59923;DHT22;45778;51.142;3.732;2022-12-07T16:05:51;6.50;99.90
59923;DHT22;45778;51.142;3.732;2022-12-07T16:08:17;6.60;99.90
59923;DHT22;45778;51.142;3.732;2022-12-07T16:10:42;6.50;99.90
59923;DHT22;45778;51.142;3.732;2022-12-07T16:13:09;6.30;99.90
59923;DHT22;45778;51.142;3.732;2022-12-07T16:15:39;6.60;99.90
59923;DHT22;45778;51.142;3.732;2022-12-07T16:18:05;6.60;99.90
59923;DHT22;45778;51.142;3.732;2022-12-07T16:20:31;6.50;99.90
59923;DHT22;45778;51.142;3.732;2022-12-07T16:22:56;6.40;99.90
59923;DHT22;45778;51.142;3.732;2022-12-07T16:25:22;6.40;99.90
59923;DHT22;45778;51.142;3.732;2022-12-07T16:27:48;6.40;99.90
59923;DHT22;45778;51.142;3.732;2022-12-07T16:30:14;6.50;99.90
59923;DHT22;45778;51.142;3.732;2022-12-07T16:32:41;6.40;99.90
59923;DHT22;45778;51.142;3.732;2022-12-07T16:35:08;6.40;99.90
59923;DHT22;45778;51.142;3.732;2022-12-07T16:37:33;6.40;99.90
59923;DHT22;45778;51.142;3.732;2022-12-07T16:39:59;6.40;99.90
59923;DHT22;45778;51.142;3.732;2022-12-07T16:42:25;6.30;99.90
59923;DHT22;45778;51.142;3.732;2022-12-07T16:44:52;6.20;99.90
59923;DHT22;45778;51.142;3.732;2022-12-07T16:47:17;6.10;99.90
59923;DHT22;45778;51.142;3.732;2022-12-07T16:49:43;5.90;99.90
59923;DHT22;45778;51.142;3.732;2022-12-07T16:52:09;5.80;99.90
59923;DHT22;45778;51.142;3.732;2022-12-07T16:54:36;5.80;99.90
59923;DHT22;45778;51.142;3.732;2022-12-07T16:57:02;5.80;99.90
59923;DHT22;45778;51.142;3.732;2022-12-07T16:59:27;5.80;99.90
59923;DHT22;45778;51.142;3.732;2022-12-07T17:01:53;5.80;99.90
59923;DHT22;45778;51.142;3.732;2022-12-07T17:04:19;5.80;99.90
59923;DHT22;45778;51.142;3.732;2022-12-07T17:06:44;5.80;99.90
59923;DHT22;45778;51.142;3.732;2022-12-07T17:09:10;5.70;99.90
59923;DHT22;45778;51.142;3.732;2022-12-07T17:11:37;5.70;99.90
59923;DHT22;45778;51.142;3.732;2022-12-07T17:14:03;5.70;99.90
59923;DHT22;45778;51.142;3.732;2022-12-07T17:16:48;5.60;99.90
59923;DHT22;45778;51.142;3.732;2022-12-07T17:19:15;5.40;99.90
59923;DHT22;45778;51.142;3.732;2022-12-07T17:21:43;5.40;99.90
59923;DHT22;45778;51.142;3.732;2022-12-07T17:24:11;5.20;99.90
59923;DHT22;45778;51.142;3.732;2022-12-07T17:26:38;5.10;99.90
59923;DHT22;45778;51.142;3.732;2022-12-07T17:29:05;5.10;99.90
59923;DHT22;45778;51.142;3.732;2022-12-07T17:31:33;5.00;99.90
59923;DHT22;45778;51.142;3.732;2022-12-07T17:33:59;5.00;99.90
59923;DHT22;45778;51.142;3.732;2022-12-07T17:36:27;5.00;99.90
59923;DHT22;45778;51.142;3.732;2022-12-07T17:38:54;4.90;99.90
59923;DHT22;45778;51.142;3.732;2022-12-07T17:41:30;4.80;99.90
59923;DHT22;45778;51.142;3.732;2022-12-07T17:44:17;4.70;99.90
59923;DHT22;45778;51.142;3.732;2022-12-07T17:46:45;4.70;99.90
59923;DHT22;45778;51.142;3.732;2022-12-07T17:49:11;4.70;99.90
59923;DHT22;45778;51.142;3.732;2022-12-07T17:51:37;4.70;99.90
59923;DHT22;45778;51.142;3.732;2022-12-07T17:54:21;4.80;99.90
59923;DHT22;45778;51.142;3.732;2022-12-07T17:56:47;4.60;99.90
59923;DHT22;45778;51.142;3.732;2022-12-07T17:59:13;4.60;99.90
59923;DHT22;45778;51.142;3.732;2022-12-07T18:01:40;4.80;99.90
59923;DHT22;45778;51.142;3.732;2022-12-07T18:04:06;5.00;99.90
59923;DHT22;45778;51.142;3.732;2022-12-07T18:06:33;5.10;99.90
59923;DHT22;45778;51.142;3.732;2022-12-07T18:08:59;5.00;99.90
59923;DHT22;45778;51.142;3.732;2022-12-07T18:11:24;5.10;99.90
59923;DHT22;45778;51.142;3.732;2022-12-07T18:13:51;5.10;99.90
59923;DHT22;45778;51.142;3.732;2022-12-07T18:16:19;5.10;99.90
59923;DHT22;45778;51.142;3.732;2022-12-07T18:18:46;5.00;99.90
59923;DHT22;45778;51.142;3.732;2022-12-07T18:21:15;4.90;99.90